sensor_id;sensor_type;location;lat;lon;timestamp;pressure;altitude;pressure_sealevel;temperature;humidity
15568;BME280;7885;42.596;23.044;2023-06-24T00:00:02;93020.13;;;21.48;100.00
15568;BME280;7885;42.596;23.044;2023-06-24T00:02:32;93019.50;;;21.35;100.00
15568;BME280;7885;42.596;23.044;2023-06-24T00:05:01;93022.28;;;21.26;100.00
15568;BME280;7885;42.596;23.044;2023-06-24T00:07:28;93029.66;;;21.20;100.00
15568;BME280;7885;42.596;23.044;2023-06-24T00:09:55;93002.53;;;21.06;100.00
15568;BME280;7885;42.596;23.044;2023-06-24T00:12:22;93019.44;;;21.08;100.00
15568;BME280;7885;42.596;23.044;2023-06-24T00:14:50;93045.03;;;21.30;100.00
15568;BME280;7885;42.596;23.044;2023-06-24T00:17:18;93015.47;;;21.18;100.00
15568;BME280;7885;42.596;23.044;2023-06-24T00:19:45;93039.34;;;21.34;100.00
15568;BME280;7885;42.596;23.044;2023-06-24T00:22:12;93010.25;;;21.11;100.00
15568;BME280;7885;42.596;23.044;2023-06-24T00:24:38;93016.03;;;21.04;100.00
15568;BME280;7885;42.596;23.044;2023-06-24T00:27:05;93030.25;;;21.15;100.00
15568;BME280;7885;42.596;23.044;2023-06-24T00:29:32;93030.19;;;21.06;100.00
15568;BME280;7885;42.596;23.044;2023-06-24T00:31:59;93030.34;;;21.02;100.00
15568;BME280;7885;42.596;23.044;2023-06-24T00:34:27;93032.16;;;20.96;100.00
15568;BME280;7885;42.596;23.044;2023-06-24T00:36:54;93037.84;;;20.93;100.00
15568;BME280;7885;42.596;23.044;2023-06-24T00:39:21;93044.41;;;20.86;100.00
15568;BME280;7885;42.596;23.044;2023-06-24T00:41:48;93028.59;;;20.87;100.00
15568;BME280;7885;42.596;23.044;2023-06-24T00:44:15;93047.25;;;20.95;100.00
15568;BME280;7885;42.596;23.044;2023-06-24T00:46:42;93040.91;;;20.86;100.00
15568;BME280;7885;42.596;23.044;2023-06-24T00:49:09;93050.38;;;20.76;100.00
15568;BME280;7885;42.596;23.044;2023-06-24T00:51:41;93042.28;;;20.81;100.00
15568;BME280;7885;42.596;23.044;2023-06-24T00:54:15;93039.31;;;20.76;100.00
15568;BME280;7885;42.596;23.044;2023-06-24T00:56:42;93031.13;;;20.63;100.00
15568;BME280;7885;42.596;23.044;2023-06-24T00:59:10;93030.34;;;20.62;100.00
15568;BME280;7885;42.596;23.044;2023-06-24T01:01:40;93017.50;;;20.38;100.00
15568;BME280;7885;42.596;23.044;2023-06-24T01:04:07;93020.22;;;20.29;100.00
15568;BME280;7885;42.596;23.044;2023-06-24T01:06:35;92987.06;;;20.07;100.00
15568;BME280;7885;42.596;23.044;2023-06-24T01:09:10;93015.66;;;20.35;100.00
15568;BME280;7885;42.596;23.044;2023-06-24T01:11:37;93014.00;;;20.37;100.00
15568;BME280;7885;42.596;23.044;2023-06-24T01:14:04;93011.22;;;20.37;100.00
15568;BME280;7885;42.596;23.044;2023-06-24T01:16:34;93000.78;;;20.41;100.00
15568;BME280;7885;42.596;23.044;2023-06-24T01:19:13;92967.78;;;20.16;100.00
15568;BME280;7885;42.596;23.044;2023-06-24T01:21:56;93024.28;;;20.37;100.00
15568;BME280;7885;42.596;23.044;2023-06-24T01:24:47;93028.88;;;20.40;100.00
15568;BME280;7885;42.596;23.044;2023-06-24T01:27:32;93038.59;;;20.44;100.00
15568;BME280;7885;42.596;23.044;2023-06-24T01:33:15;93056.13;;;20.50;100.00
15568;BME280;7885;42.596;23.044;2023-06-24T01:35:47;93056.44;;;20.52;100.00
15568;BME280;7885;42.596;23.044;2023-06-24T01:38:20;93047.31;;;20.34;100.00
15568;BME280;7885;42.596;23.044;2023-06-24T01:40:48;93079.16;;;20.47;100.00
15568;BME280;7885;42.596;23.044;2023-06-24T01:43:17;93062.34;;;20.33;100.00
15568;BME280;7885;42.596;23.044;2023-06-24T01:45:50;93086.31;;;20.36;100.00
15568;BME280;7885;42.596;23.044;2023-06-24T01:48:23;93084.69;;;20.26;100.00
15568;BME280;7885;42.596;23.044;2023-06-24T01:50:57;93077.69;;;20.12;100.00
15568;BME280;7885;42.596;23.044;2023-06-24T01:53:26;93082.00;;;20.13;100.00
15568;BME280;7885;42.596;23.044;2023-06-24T01:55:55;93080.44;;;20.12;100.00
15568;BME280;7885;42.596;23.044;2023-06-24T01:58:24;93084.94;;;20.18;100.00
15568;BME280;7885;42.596;23.044;2023-06-24T02:00:52;93069.00;;;20.01;100.00
15568;BME280;7885;42.596;23.044;2023-06-24T02:03:21;93070.63;;;20.11;100.00
15568;BME280;7885;42.596;23.044;2023-06-24T02:05:50;93056.94;;;19.86;100.00
15568;BME280;7885;42.596;23.044;2023-06-24T02:08:19;93062.06;;;19.96;100.00
15568;BME280;7885;42.596;23.044;2023-06-24T02:10:48;93078.47;;;20.12;100.00
15568;BME280;7885;42.596;23.044;2023-06-24T02:13:16;93081.75;;;20.20;100.00
15568;BME280;7885;42.596;23.044;2023-06-24T02:15:44;93083.91;;;20.25;100.00
15568;BME280;7885;42.596;23.044;2023-06-24T02:18:13;93019.81;;;19.87;100.00
15568;BME280;7885;42.596;23.044;2023-06-24T02:20:43;93096.28;;;20.33;100.00
15568;BME280;7885;42.596;23.044;2023-06-24T02:23:11;93090.22;;;20.26;100.00
15568;BME280;7885;42.596;23.044;2023-06-24T02:25:40;93091.66;;;20.30;100.00
15568;BME280;7885;42.596;23.044;2023-06-24T02:28:08;93094.66;;;20.23;100.00
15568;BME280;7885;42.596;23.044;2023-06-24T02:30:36;93098.19;;;20.24;100.00
15568;BME280;7885;42.596;23.044;2023-06-24T02:33:04;93070.16;;;19.91;100.00
15568;BME280;7885;42.596;23.044;2023-06-24T02:35:30;93071.06;;;19.88;100.00
15568;BME280;7885;42.596;23.044;2023-06-24T02:37:59;93105.88;;;20.07;100.00
15568;BME280;7885;42.596;23.044;2023-06-24T02:40:25;93110.53;;;19.88;100.00
15568;BME280;7885;42.596;23.044;2023-06-24T02:42:53;93101.84;;;19.77;100.00
15568;BME280;7885;42.596;23.044;2023-06-24T02:45:20;93113.31;;;19.76;100.00
15568;BME280;7885;42.596;23.044;2023-06-24T02:47:49;93106.81;;;19.70;100.00
15568;BME280;7885;42.596;23.044;2023-06-24T02:50:16;93101.53;;;19.62;100.00
15568;BME280;7885;42.596;23.044;2023-06-24T02:52:44;93125.34;;;19.82;100.00
15568;BME280;7885;42.596;23.044;2023-06-24T02:55:13;93119.50;;;19.80;100.00
15568;BME280;7885;42.596;23.044;2023-06-24T02:57:41;93126.44;;;19.84;100.00
15568;BME280;7885;42.596;23.044;2023-06-24T03:00:10;93102.25;;;19.76;100.00
15568;BME280;7885;42.596;23.044;2023-06-24T03:02:38;93111.53;;;19.82;100.00
15568;BME280;7885;42.596;23.044;2023-06-24T03:05:06;93105.19;;;19.59;100.00
15568;BME280;7885;42.596;23.044;2023-06-24T03:07:33;93102.66;;;19.65;100.00
15568;BME280;7885;42.596;23.044;2023-06-24T03:10:02;93080.28;;;19.50;100.00
15568;BME280;7885;42.596;23.044;2023-06-24T03:12:31;93110.41;;;19.57;100.00
15568;BME280;7885;42.596;23.044;2023-06-24T03:14:58;93105.19;;;19.59;100.00
15568;BME280;7885;42.596;23.044;2023-06-24T03:17:26;93099.69;;;19.59;100.00
15568;BME280;7885;42.596;23.044;2023-06-24T03:19:52;93112.22;;;19.73;100.00
15568;BME280;7885;42.596;23.044;2023-06-24T03:22:20;93118.59;;;19.83;100.00
15568;BME280;7885;42.596;23.044;2023-06-24T03:24:47;93093.25;;;19.62;100.00
15568;BME280;7885;42.596;23.044;2023-06-24T03:27:14;93110.66;;;19.85;100.00
15568;BME280;7885;42.596;23.044;2023-06-24T03:29:42;93123.84;;;20.02;100.00
15568;BME280;7885;42.596;23.044;2023-06-24T03:32:09;93118.50;;;20.08;100.00
15568;BME280;7885;42.596;23.044;2023-06-24T03:34:36;93125.63;;;20.18;100.00
15568;BME280;7885;42.596;23.044;2023-06-24T03:37:03;93108.09;;;20.12;100.00
15568;BME280;7885;42.596;23.044;2023-06-24T03:39:30;93121.50;;;20.23;100.00
15568;BME280;7885;42.596;23.044;2023-06-24T03:41:57;93134.44;;;20.26;100.00
15568;BME280;7885;42.596;23.044;2023-06-24T03:44:23;93119.41;;;20.27;100.00
15568;BME280;7885;42.596;23.044;2023-06-24T03:46:52;93113.09;;;20.26;100.00
15568;BME280;7885;42.596;23.044;2023-06-24T03:49:18;93132.91;;;20.46;100.00
15568;BME280;7885;42.596;23.044;2023-06-24T03:51:45;93132.78;;;20.50;100.00
15568;BME280;7885;42.596;23.044;2023-06-24T03:54:12;93138.19;;;20.53;100.00
15568;BME280;7885;42.596;23.044;2023-06-24T03:56:38;93113.81;;;20.39;100.00
15568;BME280;7885;42.596;23.044;2023-06-24T03:59:05;93147.78;;;20.71;100.00
15568;BME280;7885;42.596;23.044;2023-06-24T04:01:33;93144.44;;;20.76;100.00
15568;BME280;7885;42.596;23.044;2023-06-24T04:04:03;93142.31;;;20.80;100.00
15568;BME280;7885;42.596;23.044;2023-06-24T04:06:29;93144.03;;;20.86;100.00
15568;BME280;7885;42.596;23.044;2023-06-24T04:08:56;93103.81;;;20.63;100.00
15568;BME280;7885;42.596;23.044;2023-06-24T04:11:24;93126.97;;;20.88;100.00
15568;BME280;7885;42.596;23.044;2023-06-24T04:13:50;93147.97;;;21.07;100.00
15568;BME280;7885;42.596;23.044;2023-06-24T04:16:17;93144.88;;;21.05;100.00
15568;BME280;7885;42.596;23.044;2023-06-24T04:18:44;93148.81;;;21.17;100.00
15568;BME280;7885;42.596;23.044;2023-06-24T04:21:12;93137.00;;;21.25;100.00
15568;BME280;7885;42.596;23.044;2023-06-24T04:23:39;93128.69;;;21.25;100.00
15568;BME280;7885;42.596;23.044;2023-06-24T04:26:06;93090.31;;;21.05;100.00
15568;BME280;7885;42.596;23.044;2023-06-24T04:28:33;93129.31;;;21.38;100.00
15568;BME280;7885;42.596;23.044;2023-06-24T04:30:59;93099.91;;;21.23;100.00
15568;BME280;7885;42.596;23.044;2023-06-24T04:33:26;93139.81;;;21.52;100.00
15568;BME280;7885;42.596;23.044;2023-06-24T04:35:54;93104.75;;;21.40;100.00
15568;BME280;7885;42.596;23.044;2023-06-24T04:38:22;93133.56;;;21.70;100.00
15568;BME280;7885;42.596;23.044;2023-06-24T04:40:48;93138.03;;;21.77;100.00
15568;BME280;7885;42.596;23.044;2023-06-24T04:43:15;93153.56;;;21.83;100.00
15568;BME280;7885;42.596;23.044;2023-06-24T04:45:42;93158.84;;;21.90;100.00
15568;BME280;7885;42.596;23.044;2023-06-24T04:48:09;93155.31;;;21.99;100.00
15568;BME280;7885;42.596;23.044;2023-06-24T04:50:35;93144.88;;;22.03;100.00
15568;BME280;7885;42.596;23.044;2023-06-24T04:53:02;93141.16;;;21.97;100.00
15568;BME280;7885;42.596;23.044;2023-06-24T04:55:30;93143.00;;;22.09;100.00
15568;BME280;7885;42.596;23.044;2023-06-24T04:57:57;93159.34;;;22.16;100.00
15568;BME280;7885;42.596;23.044;2023-06-24T05:00:24;93164.56;;;22.23;100.00
15568;BME280;7885;42.596;23.044;2023-06-24T05:02:50;93159.31;;;22.34;100.00
15568;BME280;7885;42.596;23.044;2023-06-24T05:05:17;93147.31;;;22.37;100.00
15568;BME280;7885;42.596;23.044;2023-06-24T05:07:45;93147.28;;;22.46;100.00
15568;BME280;7885;42.596;23.044;2023-06-24T05:10:12;93143.28;;;22.56;100.00
15568;BME280;7885;42.596;23.044;2023-06-24T05:12:40;93150.38;;;22.67;100.00
15568;BME280;7885;42.596;23.044;2023-06-24T05:15:07;93133.09;;;22.62;99.32
15568;BME280;7885;42.596;23.044;2023-06-24T05:17:35;93155.56;;;22.83;99.87
15568;BME280;7885;42.596;23.044;2023-06-24T05:20:02;93150.00;;;22.83;99.19
15568;BME280;7885;42.596;23.044;2023-06-24T05:22:29;93150.19;;;22.88;98.92
15568;BME280;7885;42.596;23.044;2023-06-24T05:24:56;93142.88;;;23.00;99.92
15568;BME280;7885;42.596;23.044;2023-06-24T05:27:22;93148.41;;;23.09;99.37
15568;BME280;7885;42.596;23.044;2023-06-24T05:29:50;93150.09;;;23.15;95.98
15568;BME280;7885;42.596;23.044;2023-06-24T05:32:17;93146.81;;;23.26;96.14
15568;BME280;7885;42.596;23.044;2023-06-24T05:34:45;93140.59;;;23.31;96.50
15568;BME280;7885;42.596;23.044;2023-06-24T05:37:12;93128.59;;;23.25;95.56
15568;BME280;7885;42.596;23.044;2023-06-24T05:39:39;93140.25;;;23.47;96.69
15568;BME280;7885;42.596;23.044;2023-06-24T05:42:06;93145.91;;;23.53;95.92
15568;BME280;7885;42.596;23.044;2023-06-24T05:44:32;93140.47;;;23.58;95.05
15568;BME280;7885;42.596;23.044;2023-06-24T05:47:01;93139.84;;;23.63;94.24
15568;BME280;7885;42.596;23.044;2023-06-24T05:49:28;93138.28;;;23.62;94.24
15568;BME280;7885;42.596;23.044;2023-06-24T05:51:55;93141.91;;;23.78;95.45
15568;BME280;7885;42.596;23.044;2023-06-24T05:54:22;93087.47;;;23.38;93.98
15568;BME280;7885;42.596;23.044;2023-06-24T05:56:49;93123.59;;;23.71;94.55
15568;BME280;7885;42.596;23.044;2023-06-24T05:59:16;93127.06;;;23.81;94.61
15568;BME280;7885;42.596;23.044;2023-06-24T06:01:42;93131.59;;;23.93;93.84
15568;BME280;7885;42.596;23.044;2023-06-24T06:04:10;93117.31;;;23.85;94.11
15568;BME280;7885;42.596;23.044;2023-06-24T06:06:37;93109.84;;;23.91;92.84
15568;BME280;7885;42.596;23.044;2023-06-24T06:09:05;93120.25;;;24.05;93.47
15568;BME280;7885;42.596;23.044;2023-06-24T06:11:31;93125.31;;;24.16;93.49
15568;BME280;7885;42.596;23.044;2023-06-24T06:13:58;93116.25;;;24.06;93.13
15568;BME280;7885;42.596;23.044;2023-06-24T06:16:25;93134.78;;;24.24;93.32
15568;BME280;7885;42.596;23.044;2023-06-24T06:18:53;93140.72;;;24.41;94.94
15568;BME280;7885;42.596;23.044;2023-06-24T06:21:21;93115.53;;;24.35;93.58
15568;BME280;7885;42.596;23.044;2023-06-24T06:23:48;93132.06;;;24.53;92.84
15568;BME280;7885;42.596;23.044;2023-06-24T06:26:15;93134.00;;;24.62;92.25
15568;BME280;7885;42.596;23.044;2023-06-24T06:28:42;93134.38;;;24.70;92.44
15568;BME280;7885;42.596;23.044;2023-06-24T06:31:09;93131.53;;;24.79;92.89
15568;BME280;7885;42.596;23.044;2023-06-24T06:33:36;93136.44;;;24.84;93.33
15568;BME280;7885;42.596;23.044;2023-06-24T06:36:03;93131.06;;;24.95;95.12
15568;BME280;7885;42.596;23.044;2023-06-24T06:38:32;93135.38;;;25.10;94.12
15568;BME280;7885;42.596;23.044;2023-06-24T06:40:59;93142.94;;;25.10;92.39
15568;BME280;7885;42.596;23.044;2023-06-24T06:43:26;93137.09;;;25.08;92.61
15568;BME280;7885;42.596;23.044;2023-06-24T06:45:52;93123.25;;;25.13;92.25
15568;BME280;7885;42.596;23.044;2023-06-24T06:48:19;93151.09;;;25.28;92.16
15568;BME280;7885;42.596;23.044;2023-06-24T06:50:46;93136.50;;;25.33;91.98
15568;BME280;7885;42.596;23.044;2023-06-24T06:53:13;93137.81;;;25.38;90.86
15568;BME280;7885;42.596;23.044;2023-06-24T06:55:41;93130.13;;;25.47;89.98
15568;BME280;7885;42.596;23.044;2023-06-24T06:58:08;93131.78;;;25.54;90.53
15568;BME280;7885;42.596;23.044;2023-06-24T07:00:35;93138.97;;;25.60;91.52
15568;BME280;7885;42.596;23.044;2023-06-24T07:03:02;93131.78;;;25.54;91.30
15568;BME280;7885;42.596;23.044;2023-06-24T07:05:29;93132.56;;;25.75;92.54
15568;BME280;7885;42.596;23.044;2023-06-24T07:07:56;93135.53;;;25.86;89.58
15568;BME280;7885;42.596;23.044;2023-06-24T07:10:23;93128.81;;;25.98;89.73
15568;BME280;7885;42.596;23.044;2023-06-24T07:12:51;93142.22;;;26.14;89.95
15568;BME280;7885;42.596;23.044;2023-06-24T07:15:24;93148.78;;;26.31;89.07
15568;BME280;7885;42.596;23.044;2023-06-24T07:17:51;93137.00;;;26.42;86.70
15568;BME280;7885;42.596;23.044;2023-06-24T07:20:18;93135.88;;;26.54;88.06
15568;BME280;7885;42.596;23.044;2023-06-24T07:22:44;93122.94;;;26.56;87.92
15568;BME280;7885;42.596;23.044;2023-06-24T07:25:11;93126.94;;;26.76;89.50
15568;BME280;7885;42.596;23.044;2023-06-24T07:27:38;93129.31;;;26.83;88.71
15568;BME280;7885;42.596;23.044;2023-06-24T07:30:07;93134.34;;;27.04;89.36
15568;BME280;7885;42.596;23.044;2023-06-24T07:32:34;93143.59;;;27.16;88.62
15568;BME280;7885;42.596;23.044;2023-06-24T07:35:01;93142.97;;;27.32;87.10
15568;BME280;7885;42.596;23.044;2023-06-24T07:37:28;93145.81;;;27.38;87.03
15568;BME280;7885;42.596;23.044;2023-06-24T07:39:55;93132.56;;;27.33;85.94
15568;BME280;7885;42.596;23.044;2023-06-24T07:42:21;93143.69;;;27.58;86.83
15568;BME280;7885;42.596;23.044;2023-06-24T08:08:22;93141.91;;;28.40;82.14
15568;BME280;7885;42.596;23.044;2023-06-24T08:10:49;93125.06;;;28.35;81.36
15568;BME280;7885;42.596;23.044;2023-06-24T08:13:16;93103.97;;;28.39;81.35
15568;BME280;7885;42.596;23.044;2023-06-24T08:15:43;93139.97;;;28.69;79.88
15568;BME280;7885;42.596;23.044;2023-06-24T08:18:10;93123.88;;;28.64;77.89
15568;BME280;7885;42.596;23.044;2023-06-24T08:20:36;93125.72;;;28.67;79.30
15568;BME280;7885;42.596;23.044;2023-06-24T08:23:03;93136.19;;;28.88;79.27
15568;BME280;7885;42.596;23.044;2023-06-24T08:25:31;93120.41;;;28.91;80.17
15568;BME280;7885;42.596;23.044;2023-06-24T08:27:58;93134.19;;;29.11;79.00
15568;BME280;7885;42.596;23.044;2023-06-24T08:30:25;93138.31;;;29.32;78.16
15568;BME280;7885;42.596;23.044;2023-06-24T08:32:52;93138.81;;;29.42;76.34
15568;BME280;7885;42.596;23.044;2023-06-24T08:35:19;93118.16;;;29.39;75.24
15568;BME280;7885;42.596;23.044;2023-06-24T08:37:46;93136.28;;;29.49;75.83
15568;BME280;7885;42.596;23.044;2023-06-24T08:40:12;93128.34;;;29.59;75.00
15568;BME280;7885;42.596;23.044;2023-06-24T08:42:42;93134.97;;;29.73;73.69
15568;BME280;7885;42.596;23.044;2023-06-24T08:45:10;93133.69;;;29.74;72.00
15568;BME280;7885;42.596;23.044;2023-06-24T08:47:37;93133.19;;;29.70;70.44
15568;BME280;7885;42.596;23.044;2023-06-24T08:50:07;93115.84;;;29.71;69.54
15568;BME280;7885;42.596;23.044;2023-06-24T08:52:35;93115.59;;;29.75;68.93
15568;BME280;7885;42.596;23.044;2023-06-24T08:55:06;93123.72;;;29.89;71.02
15568;BME280;7885;42.596;23.044;2023-06-24T08:57:33;93094.44;;;29.85;71.14
15568;BME280;7885;42.596;23.044;2023-06-24T09:00:02;93094.94;;;29.89;72.76
15568;BME280;7885;42.596;23.044;2023-06-24T09:02:30;93116.78;;;30.18;74.54
15568;BME280;7885;42.596;23.044;2023-06-24T09:04:58;93070.38;;;30.06;73.24
15568;BME280;7885;42.596;23.044;2023-06-24T09:07:28;93119.72;;;30.53;73.22
15568;BME280;7885;42.596;23.044;2023-06-24T09:09:55;93122.44;;;30.70;71.06
15568;BME280;7885;42.596;23.044;2023-06-24T09:12:23;93095.59;;;30.75;68.28
15568;BME280;7885;42.596;23.044;2023-06-24T09:14:50;93108.56;;;30.89;67.66
15568;BME280;7885;42.596;23.044;2023-06-24T09:17:19;93099.84;;;30.92;66.83
15568;BME280;7885;42.596;23.044;2023-06-24T09:19:47;93121.69;;;31.16;68.97
15568;BME280;7885;42.596;23.044;2023-06-24T09:22:14;93114.31;;;31.13;66.99
15568;BME280;7885;42.596;23.044;2023-06-24T09:24:44;93120.31;;;31.28;69.78
15568;BME280;7885;42.596;23.044;2023-06-24T09:27:12;93115.25;;;31.57;67.69
15568;BME280;7885;42.596;23.044;2023-06-24T09:29:40;93125.59;;;31.73;68.11
15568;BME280;7885;42.596;23.044;2023-06-24T09:32:08;93120.16;;;31.80;67.68
15568;BME280;7885;42.596;23.044;2023-06-24T09:34:36;93124.81;;;31.72;67.23
15568;BME280;7885;42.596;23.044;2023-06-24T09:37:03;93102.19;;;31.24;64.87
15568;BME280;7885;42.596;23.044;2023-06-24T09:42:53;93116.22;;;31.29;67.85
15568;BME280;7885;42.596;23.044;2023-06-24T09:45:25;93118.59;;;31.49;66.78
15568;BME280;7885;42.596;23.044;2023-06-24T09:47:53;93101.47;;;31.53;66.04
15568;BME280;7885;42.596;23.044;2023-06-24T09:50:22;93071.91;;;31.35;68.49
15568;BME280;7885;42.596;23.044;2023-06-24T09:52:50;93092.38;;;31.66;67.04
15568;BME280;7885;42.596;23.044;2023-06-24T09:55:18;93108.38;;;31.82;67.89
15568;BME280;7885;42.596;23.044;2023-06-24T09:57:46;93044.97;;;31.51;66.03
15568;BME280;7885;42.596;23.044;2023-06-24T10:00:15;93068.25;;;31.46;62.79
15568;BME280;7885;42.596;23.044;2023-06-24T10:02:43;93104.50;;;31.55;64.60
15568;BME280;7885;42.596;23.044;2023-06-24T10:05:12;93074.56;;;31.58;65.66
15568;BME280;7885;42.596;23.044;2023-06-24T10:07:41;93095.97;;;31.90;65.54
15568;BME280;7885;42.596;23.044;2023-06-24T10:10:08;93083.97;;;31.90;62.50
15568;BME280;7885;42.596;23.044;2023-06-24T10:12:36;93078.88;;;32.13;60.29
15568;BME280;7885;42.596;23.044;2023-06-24T10:15:04;93048.28;;;32.22;59.77
15568;BME280;7885;42.596;23.044;2023-06-24T10:17:31;93074.84;;;32.70;60.90
15568;BME280;7885;42.596;23.044;2023-06-24T10:20:03;93058.56;;;32.81;57.33
15568;BME280;7885;42.596;23.044;2023-06-24T10:22:30;93070.56;;;33.00;58.33
15568;BME280;7885;42.596;23.044;2023-06-24T10:25:01;93063.16;;;32.97;59.21
15568;BME280;7885;42.596;23.044;2023-06-24T10:27:28;93064.78;;;33.12;58.92
15568;BME280;7885;42.596;23.044;2023-06-24T10:30:02;93064.56;;;32.91;55.08
15568;BME280;7885;42.596;23.044;2023-06-24T10:32:39;93057.47;;;32.84;57.48
15568;BME280;7885;42.596;23.044;2023-06-24T10:35:07;93051.47;;;32.75;57.66
15568;BME280;7885;42.596;23.044;2023-06-24T10:37:34;93040.97;;;32.75;57.36
15568;BME280;7885;42.596;23.044;2023-06-24T10:40:02;93035.84;;;32.74;59.49
15568;BME280;7885;42.596;23.044;2023-06-24T10:42:37;93053.50;;;32.93;57.04
15568;BME280;7885;42.596;23.044;2023-06-24T10:45:15;93037.13;;;32.91;56.29
15568;BME280;7885;42.596;23.044;2023-06-24T10:47:44;93050.06;;;33.00;55.79
15568;BME280;7885;42.596;23.044;2023-06-24T10:50:12;93038.34;;;32.77;54.38
15568;BME280;7885;42.596;23.044;2023-06-24T10:52:42;93039.31;;;32.98;56.96
15568;BME280;7885;42.596;23.044;2023-06-24T11:08:44;93036.78;;;33.59;53.08
15568;BME280;7885;42.596;23.044;2023-06-24T11:11:18;93035.97;;;33.64;53.83
15568;BME280;7885;42.596;23.044;2023-06-24T11:13:48;92996.66;;;33.66;54.36
15568;BME280;7885;42.596;23.044;2023-06-24T11:16:20;93011.53;;;33.79;50.84
15568;BME280;7885;42.596;23.044;2023-06-24T11:18:47;92991.44;;;33.83;51.21
15568;BME280;7885;42.596;23.044;2023-06-24T11:21:13;93014.16;;;33.90;52.92
15568;BME280;7885;42.596;23.044;2023-06-24T11:27:04;93038.25;;;33.20;50.53
15568;BME280;7885;42.596;23.044;2023-06-24T11:29:32;93034.44;;;32.99;50.66
15568;BME280;7885;42.596;23.044;2023-06-24T11:32:01;93022.50;;;32.74;51.52
15568;BME280;7885;42.596;23.044;2023-06-24T11:34:28;93022.72;;;32.58;51.93
15568;BME280;7885;42.596;23.044;2023-06-24T11:36:55;93028.81;;;32.43;52.46
15568;BME280;7885;42.596;23.044;2023-06-24T11:39:23;92985.66;;;32.16;53.15
15568;BME280;7885;42.596;23.044;2023-06-24T11:41:51;93028.97;;;32.50;53.09
15568;BME280;7885;42.596;23.044;2023-06-24T11:44:20;92983.59;;;32.35;53.87
15568;BME280;7885;42.596;23.044;2023-06-24T11:46:47;93011.31;;;32.69;52.50
15568;BME280;7885;42.596;23.044;2023-06-24T11:49:14;93021.50;;;32.90;54.99
15568;BME280;7885;42.596;23.044;2023-06-24T11:51:48;93007.31;;;32.96;53.24
15568;BME280;7885;42.596;23.044;2023-06-24T11:54:17;92985.44;;;33.02;53.85
15568;BME280;7885;42.596;23.044;2023-06-24T12:00:13;92982.69;;;33.28;53.91
15568;BME280;7885;42.596;23.044;2023-06-24T12:02:40;92975.31;;;33.38;53.69
15568;BME280;7885;42.596;23.044;2023-06-24T12:05:07;92969.16;;;33.40;54.67
15568;BME280;7885;42.596;23.044;2023-06-24T12:07:34;92958.38;;;33.25;54.84
15568;BME280;7885;42.596;23.044;2023-06-24T12:10:01;92966.53;;;33.29;54.40
15568;BME280;7885;42.596;23.044;2023-06-24T12:12:28;92967.28;;;33.16;53.22
15568;BME280;7885;42.596;23.044;2023-06-24T12:14:54;92955.03;;;32.95;53.89
15568;BME280;7885;42.596;23.044;2023-06-24T12:17:22;92965.41;;;32.87;53.32
15568;BME280;7885;42.596;23.044;2023-06-24T12:19:49;92973.03;;;32.92;55.10
15568;BME280;7885;42.596;23.044;2023-06-24T12:22:16;92986.88;;;32.90;56.14
15568;BME280;7885;42.596;23.044;2023-06-24T12:24:43;92971.09;;;32.68;54.85
15568;BME280;7885;42.596;23.044;2023-06-24T12:27:09;92986.78;;;32.64;54.59
15568;BME280;7885;42.596;23.044;2023-06-24T12:29:36;92947.81;;;32.30;54.62
15568;BME280;7885;42.596;23.044;2023-06-24T12:32:03;92942.25;;;32.06;54.88
15568;BME280;7885;42.596;23.044;2023-06-24T12:34:31;92979.78;;;32.14;54.45
15568;BME280;7885;42.596;23.044;2023-06-24T12:36:58;92991.78;;;31.96;53.71
15568;BME280;7885;42.596;23.044;2023-06-24T12:39:25;92990.91;;;31.82;54.27
15568;BME280;7885;42.596;23.044;2023-06-24T12:41:51;92999.31;;;31.64;56.05
15568;BME280;7885;42.596;23.044;2023-06-24T12:44:19;93003.84;;;31.42;57.77
15568;BME280;7885;42.596;23.044;2023-06-24T12:46:45;93014.88;;;31.40;57.92
15568;BME280;7885;42.596;23.044;2023-06-24T12:49:12;93021.34;;;31.30;59.82
15568;BME280;7885;42.596;23.044;2023-06-24T12:51:40;93001.66;;;31.00;58.83
15568;BME280;7885;42.596;23.044;2023-06-24T12:54:07;92993.31;;;30.89;59.28
15568;BME280;7885;42.596;23.044;2023-06-24T12:56:34;93021.63;;;30.96;59.73
15568;BME280;7885;42.596;23.044;2023-06-24T12:59:01;93017.59;;;30.86;61.95
15568;BME280;7885;42.596;23.044;2023-06-24T13:04:49;93010.44;;;30.50;60.28
15568;BME280;7885;42.596;23.044;2023-06-24T13:07:17;92978.69;;;30.14;60.78
15568;BME280;7885;42.596;23.044;2023-06-24T13:09:44;92983.09;;;30.04;60.65
15568;BME280;7885;42.596;23.044;2023-06-24T13:12:11;92992.56;;;30.01;62.34
15568;BME280;7885;42.596;23.044;2023-06-24T13:14:38;92977.63;;;29.59;72.70
15568;BME280;7885;42.596;23.044;2023-06-24T13:17:05;92988.16;;;29.31;75.03
15568;BME280;7885;42.596;23.044;2023-06-24T13:19:32;92976.22;;;29.03;76.48
15568;BME280;7885;42.596;23.044;2023-06-24T13:21:59;92977.50;;;28.91;77.89
15568;BME280;7885;42.596;23.044;2023-06-24T13:24:42;92969.34;;;28.76;79.65
15568;BME280;7885;42.596;23.044;2023-06-24T13:27:09;92968.09;;;28.72;80.12
15568;BME280;7885;42.596;23.044;2023-06-24T13:29:35;92975.41;;;28.41;80.95
15568;BME280;7885;42.596;23.044;2023-06-24T13:32:02;93001.88;;;28.29;80.55
15568;BME280;7885;42.596;23.044;2023-06-24T13:34:29;93013.03;;;28.18;79.56
15568;BME280;7885;42.596;23.044;2023-06-24T13:36:56;93019.91;;;28.17;79.21
15568;BME280;7885;42.596;23.044;2023-06-24T13:42:46;93045.38;;;28.25;79.13
15568;BME280;7885;42.596;23.044;2023-06-24T13:45:12;93059.13;;;28.28;78.47
15568;BME280;7885;42.596;23.044;2023-06-24T13:47:39;93056.84;;;28.32;79.15
15568;BME280;7885;42.596;23.044;2023-06-24T13:50:06;93057.09;;;28.23;78.13
15568;BME280;7885;42.596;23.044;2023-06-24T14:06:02;93046.13;;;28.20;76.17
15568;BME280;7885;42.596;23.044;2023-06-24T14:08:29;93062.50;;;27.90;76.86